createdAt,value
2022-11-29T00:01:44.465Z,99719.03
2022-11-29T00:04:13.183Z,99717.19
2022-11-29T00:06:41.796Z,99721.09
2022-11-29T00:09:14.226Z,99723.28
2022-11-29T00:12:01.743Z,99713.72
2022-11-29T00:14:30.495Z,99720.06
2022-11-29T00:17:02.395Z,99713.16
2022-11-29T00:19:31.658Z,99720.06
2022-11-29T00:22:00.499Z,99716.38
2022-11-29T00:24:31.662Z,99714.78
2022-11-29T00:27:02.351Z,99712.13
2022-11-29T00:29:31.849Z,99711.88
2022-11-29T00:32:00.876Z,99719.03
2022-11-29T00:34:29.912Z,99710.28
2022-11-29T00:36:58.430Z,99707.44
2022-11-29T00:39:27.114Z,99711.09
2022-11-29T00:41:56.014Z,99716.38
2022-11-29T00:44:26.071Z,99714.53
2022-11-29T00:46:54.460Z,99719.81
2022-11-29T00:49:22.822Z,99715.13
2022-11-29T00:51:51.234Z,99713.28
2022-11-29T00:54:19.638Z,99721.22
2022-11-29T00:56:48.087Z,99723.84
2022-11-29T00:59:16.527Z,99723.84
2022-11-29T01:01:46.389Z,99728.34
2022-11-29T01:04:14.863Z,99717.41
2022-11-29T01:06:43.340Z,99718.00
2022-11-29T01:09:11.824Z,99730.75
2022-11-29T01:11:40.257Z,99726.50
2022-11-29T01:14:08.660Z,99725.47
2022-11-29T01:16:37.139Z,99732.38
2022-11-29T01:19:07.965Z,99732.59
2022-11-29T01:21:36.425Z,99728.09
2022-11-29T01:24:05.365Z,99718.47
2022-11-29T01:26:34.029Z,99720.41
2022-11-29T01:29:02.428Z,99721.09
2022-11-29T01:31:33.377Z,99737.88
2022-11-29T01:34:04.470Z,99734.22
2022-11-29T01:36:35.333Z,99733.38
2022-11-29T01:39:06.754Z,99734.22
2022-11-29T01:41:37.883Z,99730.38
2022-11-29T01:44:13.833Z,99733.38
2022-11-29T01:46:45.760Z,99733.38
2022-11-29T01:49:18.760Z,99736.84
2022-11-29T01:51:52.237Z,99734.22
2022-11-29T01:54:22.219Z,99739.50
2022-11-29T01:56:53.153Z,99738.09
2022-11-29T01:59:26.781Z,99747.19
2022-11-29T02:01:58.630Z,99733.97
2022-11-29T02:04:27.079Z,99739.25
2022-11-29T02:06:56.883Z,99735.22
2022-11-29T02:09:25.248Z,99736.03
2022-11-29T02:12:19.006Z,99741.31
2022-11-29T02:15:06.613Z,99735.47
2022-11-29T02:17:47.855Z,99730.38
2022-11-29T02:21:16.745Z,99740.75
2022-11-29T02:24:39.627Z,99747.06
2022-11-29T02:28:02.507Z,99741.44
2022-11-29T02:31:21.228Z,99744.28
2022-11-29T02:34:29.497Z,99756.47
2022-11-29T02:37:23.537Z,99749.38
2022-11-29T02:40:15.679Z,99740.41
2022-11-29T02:43:41.503Z,99745.09
2022-11-29T02:46:28.631Z,99744.88
2022-11-29T02:49:04.756Z,99746.47
2022-11-29T02:51:44.113Z,99749.13
2022-11-29T02:54:20.936Z,99748.69
2022-11-29T02:56:56.090Z,99743.38
2022-11-29T02:59:48.207Z,99738.56
2022-11-29T03:02:26.314Z,99748.44
2022-11-29T03:05:02.851Z,99749.25
2022-11-29T03:07:41.694Z,99751.88
2022-11-29T03:10:19.418Z,99754.53
2022-11-29T03:12:51.146Z,99742.81
2022-11-29T03:15:30.849Z,99762.09
2022-11-29T03:18:27.113Z,99767.97
2022-11-29T03:21:07.303Z,99765.09
2022-11-29T03:23:40.810Z,99772.00
2022-11-29T03:26:12.757Z,99776.50
2022-11-29T03:28:47.799Z,99770.16
2022-11-29T03:31:22.626Z,99773.63
2022-11-29T03:34:03.238Z,99773.63
2022-11-29T03:36:41.337Z,99784.19
2022-11-29T03:39:18.852Z,99778.91
2022-11-29T03:41:53.583Z,99782.13
2022-11-29T03:44:28.484Z,99785.00
2022-11-29T03:47:03.459Z,99787.44
2022-11-29T03:49:37.097Z,99780.94
2022-11-29T03:52:16.492Z,99792.13
2022-11-29T03:54:57.391Z,99788.44
2022-11-29T03:57:35.090Z,99788.44
2022-11-29T04:00:08.484Z,99784.78
2022-11-29T04:03:23.235Z,99778.91
2022-11-29T04:06:22.875Z,99784.19
2022-11-29T04:09:26.933Z,99781.78
2022-11-29T04:12:21.558Z,99782.59
2022-11-29T04:15:55.642Z,99779.34
2022-11-29T04:18:52.113Z,99782.00
2022-11-29T04:21:57.112Z,99787.28
2022-11-29T04:25:16.094Z,99794.41
2022-11-29T04:28:25.119Z,99799.69
2022-11-29T04:31:04.868Z,99802.94
2022-11-29T04:34:03.892Z,99800.50
2022-11-29T04:37:08.376Z,99802.94
2022-11-29T04:39:56.684Z,99808.22
2022-11-29T04:42:54.474Z,99817.94
2022-11-29T04:45:45.399Z,99819.59
2022-11-29T04:48:37.043Z,99815.91
2022-11-29T04:51:20.647Z,99818.31
2022-11-29T04:53:58.864Z,99814.06
2022-11-29T04:56:36.703Z,99816.69
2022-11-29T04:59:13.405Z,99824.44
2022-11-29T05:01:58.140Z,99825.22
2022-11-29T05:04:33.392Z,99824.19
2022-11-29T05:07:07.573Z,99824.19
2022-11-29T05:09:54.078Z,99827.88
2022-11-29T05:12:30.870Z,99826.03
2022-11-29T05:15:24.628Z,99837.84
2022-11-29T05:18:04.591Z,99841.28
2022-11-29T05:20:42.809Z,99836.00
2022-11-29T05:23:38.452Z,99841.28
2022-11-29T05:26:15.022Z,99839.44
2022-11-29T05:28:52.103Z,99857.75
2022-11-29T05:31:39.008Z,99855.09
2022-11-29T05:34:48.043Z,99862.22
2022-11-29T05:37:32.545Z,99853.50
2022-11-29T05:40:36.768Z,99859.59
2022-11-29T05:43:26.316Z,99850.84
2022-11-29T05:46:04.169Z,99849.22
2022-11-29T05:48:45.284Z,99849.81
2022-11-29T05:51:24.299Z,99851.66
2022-11-29T05:54:09.263Z,99856.69
2022-11-29T05:56:47.408Z,99855.66
2022-11-29T05:59:21.625Z,99854.06
2022-11-29T06:02:02.955Z,99859.34
2022-11-29T06:04:47.655Z,99859.34
2022-11-29T06:07:24.291Z,99866.72
2022-11-29T06:10:01.624Z,99869.72
2022-11-29T06:12:35.009Z,99871.53
2022-11-29T06:15:32.170Z,99872.34
2022-11-29T06:18:32.327Z,99875.19
2022-11-29T06:21:14.974Z,99875.19
2022-11-29T06:24:06.355Z,99876.00
2022-11-29T06:26:58.414Z,99901.63
2022-11-29T06:29:37.107Z,99903.25
2022-11-29T06:32:19.384Z,99897.16
2022-11-29T06:34:55.708Z,99908.53
2022-11-29T06:37:28.981Z,99899.00
2022-11-29T06:39:59.548Z,99894.31
2022-11-29T06:42:28.032Z,99897.50
2022-11-29T06:44:57.350Z,99898.31
2022-11-29T06:47:32.923Z,99902.81
2022-11-29T06:50:14.751Z,99897.50
2022-11-29T06:52:50.599Z,99922.34
2022-11-29T06:55:28.648Z,99914.66
2022-11-29T06:58:10.619Z,99907.28
2022-11-29T07:00:51.835Z,99912.56
2022-11-29T07:03:58.859Z,99919.94
2022-11-29T07:06:32.001Z,99921.53
2022-11-29T07:09:05.226Z,99924.75
2022-11-29T07:11:35.969Z,99928.44
2022-11-29T07:14:05.202Z,99932.91
2022-11-29T07:16:40.483Z,99932.91
2022-11-29T07:19:22.519Z,99918.28
2022-11-29T07:22:04.140Z,99940.25
2022-11-29T07:24:49.792Z,99946.38
2022-11-29T07:27:25.993Z,99936.44
2022-11-29T07:30:11.415Z,99950.63
2022-11-29T07:33:00.040Z,99957.28
2022-11-29T07:35:41.689Z,99950.38
2022-11-29T07:38:19.119Z,99950.38
2022-11-29T07:40:56.190Z,99955.66
2022-11-29T07:43:40.997Z,99946.56
2022-11-29T07:46:09.378Z,99962.56
2022-11-29T07:48:37.752Z,99963.16
2022-11-29T07:51:06.311Z,99965.00
2022-11-29T07:53:40.179Z,99963.16
2022-11-29T07:56:09.537Z,99971.09
2022-11-29T07:58:39.512Z,99971.88
2022-11-29T08:01:08.486Z,99965.00
2022-11-29T08:03:36.899Z,99972.13
2022-11-29T08:06:05.799Z,99975.56
2022-11-29T08:08:37.735Z,99969.13
2022-11-29T08:11:12.879Z,99981.06
2022-11-29T08:13:42.605Z,99978.41
2022-11-29T08:16:17.031Z,99982.91
2022-11-29T08:18:45.730Z,99968.31
2022-11-29T08:21:18.192Z,99982.09
2022-11-29T08:23:46.767Z,99991.63
2022-11-29T08:26:16.474Z,99987.38
2022-11-29T08:28:46.491Z,99982.91
2022-11-29T08:31:15.077Z,99984.38
2022-11-29T08:33:44.677Z,99997.16
2022-11-29T08:36:18.833Z,99990.25
2022-11-29T08:38:47.547Z,100003.25
2022-11-29T08:41:18.179Z,100002.22
2022-11-29T08:43:48.021Z,100003.25
2022-11-29T08:46:18.764Z,100002.44
2022-11-29T08:48:47.767Z,100007.50
2022-11-29T08:51:16.715Z,100005.69
2022-11-29T08:53:46.122Z,100014.41
2022-11-29T08:57:04.467Z,100015.28
2022-11-29T08:59:08.316Z,100013.44
2022-11-29T09:01:37.159Z,100025.00
2022-11-29T09:04:07.680Z,100025.00
2022-11-29T09:06:41.293Z,100027.63
2022-11-29T09:09:09.705Z,100029.25
2022-11-29T09:11:38.211Z,100030.03
2022-11-29T09:14:10.066Z,100030.03
2022-11-29T09:16:39.806Z,100034.28
2022-11-29T09:19:09.066Z,100038.56
2022-11-29T09:21:37.822Z,100033.28
2022-11-29T09:24:09.265Z,100033.28
2022-11-29T09:26:40.733Z,100039.16
2022-11-29T09:29:12.065Z,100048.91
2022-11-29T09:31:40.589Z,100044.44
2022-11-29T09:34:09.221Z,100045.47
2022-11-29T09:36:37.610Z,100045.84
2022-11-29T09:39:06.422Z,100048.72
2022-11-29T09:42:01.961Z,100057.44
2022-11-29T09:44:46.694Z,100053.16
2022-11-29T09:47:49.444Z,100056.66
2022-11-29T09:50:26.498Z,100061.09
2022-11-29T09:53:15.143Z,100060.91
2022-11-29T09:56:10.982Z,100061.69
2022-11-29T09:58:46.000Z,100062.31
2022-11-29T10:01:24.691Z,100061.25
2022-11-29T10:03:55.999Z,100062.06
2022-11-29T10:06:28.290Z,100061.03
2022-11-29T10:09:03.898Z,100061.03
2022-11-29T10:11:39.415Z,100067.34
2022-11-29T10:14:14.432Z,100074.06
2022-11-29T10:16:51.459Z,100072.56
2022-11-29T10:19:28.036Z,100063.84
2022-11-29T10:22:04.924Z,100071.53
2022-11-29T10:24:34.936Z,100065.22
2022-11-29T10:27:06.463Z,100057.75
2022-11-29T10:29:34.906Z,100063.16
2022-11-29T10:32:12.583Z,100068.47
2022-11-29T10:34:42.512Z,100059.72
2022-11-29T10:37:17.762Z,100061.69
2022-11-29T10:39:50.761Z,100059.84
2022-11-29T10:42:39.691Z,100052.97
2022-11-29T10:45:19.199Z,100053.75
2022-11-29T10:47:50.761Z,100058.25
2022-11-29T10:50:22.752Z,100057.56
2022-11-29T10:52:53.666Z,100058.38
2022-11-29T10:55:27.508Z,100063.22
2022-11-29T10:58:23.255Z,100057.13
2022-11-29T11:00:57.930Z,100049.19
2022-11-29T11:03:33.694Z,100056.69
2022-11-29T11:06:08.080Z,100060.75
2022-11-29T11:08:38.776Z,100046.13
2022-11-29T11:11:09.222Z,100056.81
2022-11-29T11:13:39.238Z,100054.78
2022-11-29T11:16:19.624Z,100055.81
2022-11-29T11:18:50.046Z,100054.34
2022-11-29T11:21:22.714Z,100061.22
2022-11-29T11:24:00.097Z,100058.59
2022-11-29T11:26:28.850Z,100064.25
2022-11-29T11:29:00.247Z,100060.56
2022-11-29T11:31:34.195Z,100055.06
2022-11-29T11:34:31.567Z,100055.88
2022-11-29T11:37:24.277Z,100059.56
2022-11-29T11:39:55.954Z,100067.00
2022-11-29T11:42:42.641Z,100066.81
2022-11-29T11:45:35.389Z,100072.09
2022-11-29T11:48:06.833Z,100070.50
2022-11-29T11:50:43.410Z,100074.50
2022-11-29T11:53:25.275Z,100069.59
2022-11-29T11:56:01.361Z,100068.53
2022-11-29T11:58:32.820Z,100084.22
2022-11-29T12:01:15.943Z,100075.47
2022-11-29T12:03:55.787Z,100077.88
2022-11-29T12:06:51.260Z,100077.06
2022-11-29T12:09:28.722Z,100074.44
2022-11-29T12:12:08.259Z,100080.88
2022-11-29T12:14:51.394Z,100081.94
2022-11-29T12:17:33.611Z,100068.91
2022-11-29T12:20:19.088Z,100074.19
2022-11-29T12:23:06.908Z,100068.09
2022-11-29T12:25:44.652Z,100087.22
2022-11-29T12:28:20.312Z,100085.97
2022-11-29T12:31:02.530Z,100080.09
2022-11-29T12:33:43.892Z,100090.44
2022-11-29T12:36:32.216Z,100085.38
2022-11-29T12:39:23.656Z,100086.19
2022-11-29T12:41:58.517Z,100088.63
2022-11-29T12:44:46.701Z,100093.09
2022-11-29T12:47:41.391Z,100084.94
2022-11-29T12:50:24.020Z,100089.88
2022-11-29T12:53:07.792Z,100103.22
2022-11-29T12:55:50.813Z,100088.63
2022-11-29T12:58:26.994Z,100084.13
2022-11-29T13:01:06.695Z,100095.28
2022-11-29T13:03:46.356Z,100101.63
2022-11-29T13:06:28.658Z,100091.63
2022-11-29T13:09:16.687Z,100090.78
2022-11-29T13:11:53.825Z,100091.63
2022-11-29T13:14:45.388Z,100091.03
2022-11-29T13:17:28.611Z,100103.03
2022-11-29T13:20:03.400Z,100095.09
2022-11-29T13:22:42.343Z,100103.81
2022-11-29T13:25:19.279Z,100092.63
2022-11-29T13:27:56.893Z,100106.13
2022-11-29T13:30:25.662Z,100108.31
2022-11-29T13:33:03.598Z,100099.56
2022-11-29T13:35:40.087Z,100099.56
2022-11-29T13:38:18.032Z,100097.94
2022-11-29T13:40:59.419Z,100101.38
2022-11-29T13:43:37.983Z,100100.38
2022-11-29T13:46:20.100Z,100098.38
2022-11-29T13:48:51.302Z,100106.47
2022-11-29T13:51:33.606Z,100108.97
2022-11-29T13:54:05.187Z,100096.75
2022-11-29T13:56:43.353Z,100107.94
2022-11-29T13:59:22.601Z,100113.59
2022-11-29T14:01:53.912Z,100101.38
2022-11-29T14:04:47.114Z,100115.44
2022-11-29T14:07:19.771Z,100103.47
2022-11-29T14:09:58.918Z,100113.81
2022-11-29T14:12:39.284Z,100121.75
2022-11-29T14:15:23.465Z,100113.81
2022-11-29T14:17:55.340Z,100123.59
2022-11-29T14:21:00.017Z,100124.63
2022-11-29T14:23:43.068Z,100124.41
2022-11-29T14:26:29.595Z,100129.69
2022-11-29T14:28:59.662Z,100136.03
2022-11-29T14:31:52.968Z,100142.13
2022-11-29T14:34:51.768Z,100131.78
2022-11-29T14:37:50.098Z,100139.91
2022-11-29T14:40:45.518Z,100138.06
2022-11-29T14:43:23.107Z,100139.47
2022-11-29T14:46:10.543Z,100142.94
2022-11-29T14:48:41.154Z,100140.06
2022-11-29T14:51:13.672Z,100142.13
2022-11-29T14:53:45.187Z,100153.06
2022-11-29T14:56:42.265Z,100150.66
2022-11-29T14:59:48.473Z,100154.78
2022-11-29T15:02:29.841Z,100154.53
2022-11-29T15:05:14.741Z,100153.38
2022-11-29T15:07:47.133Z,100152.94
2022-11-29T15:10:22.757Z,100150.28
2022-11-29T15:12:52.195Z,100162.06
2022-11-29T15:15:35.843Z,100159.41
2022-11-29T15:18:21.715Z,100161.44
2022-11-29T15:21:10.306Z,100168.38
2022-11-29T15:23:43.463Z,100169.19
2022-11-29T15:26:20.096Z,100173.69
2022-11-29T15:28:49.147Z,100172.03
2022-11-29T15:31:21.806Z,100164.69
2022-11-29T15:33:51.866Z,100174.47
2022-11-29T15:36:24.329Z,100175.28
2022-11-29T15:38:56.346Z,100182.78
2022-11-29T15:41:29.929Z,100182.19
2022-11-29T15:44:02.209Z,100182.41
2022-11-29T15:46:33.322Z,100180.78
2022-11-29T15:49:18.066Z,100186.31
2022-11-29T15:51:52.080Z,100186.53
2022-11-29T15:54:30.926Z,100190.56
2022-11-29T15:57:04.883Z,100196.91
2022-11-29T15:59:38.631Z,100202.78
2022-11-29T16:02:20.848Z,100202.78
2022-11-29T16:04:52.044Z,100203.00
2022-11-29T16:07:24.130Z,100201.38
2022-11-29T16:09:56.900Z,100203.22
2022-11-29T16:12:25.971Z,100199.53
2022-11-29T16:14:57.107Z,100202.44
2022-11-29T16:17:28.361Z,100196.28
2022-11-29T16:20:23.597Z,100207.72
2022-11-29T16:23:12.625Z,100196.75
2022-11-29T16:25:57.169Z,100199.03
2022-11-29T16:28:31.317Z,100196.41
2022-11-29T16:31:00.169Z,100203.28
2022-11-29T16:33:29.248Z,100208.94
2022-11-29T16:36:14.282Z,100207.34
2022-11-29T16:38:48.489Z,100203.06
2022-11-29T16:41:26.702Z,100214.44
2022-11-29T16:43:57.549Z,100204.53
2022-11-29T16:46:39.667Z,100218.94
2022-11-29T16:49:34.834Z,100226.31
2022-11-29T16:52:04.474Z,100211.44
2022-11-29T16:54:34.513Z,100229.16
2022-11-29T16:57:06.894Z,100212.69
2022-11-29T16:59:36.481Z,100222.63
2022-11-29T17:02:07.012Z,100217.31
2022-11-29T17:04:35.424Z,100223.44
2022-11-29T17:07:04.367Z,100229.53
2022-11-29T17:09:35.822Z,100226.97
2022-11-29T17:12:04.925Z,100217.31
2022-11-29T17:14:34.038Z,100234.81
2022-11-29T17:17:02.516Z,100218.13
2022-11-29T17:19:31.947Z,100230.31
2022-11-29T17:22:00.325Z,100222.63
2022-11-29T17:24:28.774Z,100232.41
2022-11-29T17:26:58.681Z,100230.56
2022-11-29T17:29:27.103Z,100233.22
2022-11-29T17:31:55.526Z,100230.56
2022-11-29T17:34:24.179Z,100240.34
2022-11-29T17:36:52.937Z,100253.56
2022-11-29T17:39:22.651Z,100245.63
2022-11-29T17:41:51.011Z,100258.06
2022-11-29T17:44:20.733Z,100246.66
2022-11-29T17:46:49.081Z,100254.81
2022-11-29T17:49:18.976Z,100244.22
2022-11-29T17:51:52.681Z,100256.41
2022-11-29T17:54:22.124Z,100260.91
2022-11-29T17:56:50.912Z,100248.94
2022-11-29T17:59:20.992Z,100254.44
2022-11-29T18:01:49.460Z,100254.44
2022-11-29T18:04:18.103Z,100264.81
2022-11-29T18:06:50.021Z,100267.47
2022-11-29T18:09:20.133Z,100267.47
2022-11-29T18:11:50.508Z,100265.03
2022-11-29T18:14:23.795Z,100273.75
2022-11-29T18:16:53.452Z,100277.44
2022-11-29T18:19:23.644Z,100276.03
2022-11-29T18:21:52.338Z,100284.59
2022-11-29T18:24:20.830Z,100278.50
2022-11-29T18:26:49.179Z,100285.63
2022-11-29T18:29:17.883Z,100285.81
2022-11-29T18:31:48.140Z,100280.75
2022-11-29T18:34:17.349Z,100280.97
2022-11-29T18:36:48.195Z,100279.78
2022-11-29T18:39:18.551Z,100288.31
2022-11-29T18:41:49.149Z,100289.13
2022-11-29T18:44:20.315Z,100289.13
2022-11-29T18:46:50.274Z,100283.84
2022-11-29T18:49:20.783Z,100289.34
2022-11-29T18:51:50.778Z,100284.50
2022-11-29T18:54:20.199Z,100297.06
2022-11-29T18:56:50.849Z,100298.91
2022-11-29T18:59:19.302Z,100294.84
2022-11-29T19:01:50.145Z,100307.03
2022-11-29T19:04:21.308Z,100313.16
2022-11-29T19:06:50.275Z,100303.00
2022-11-29T19:09:21.674Z,100296.44
2022-11-29T19:11:50.655Z,100299.34
2022-11-29T19:14:20.080Z,100287.13
2022-11-29T19:16:50.993Z,100300.38
2022-11-29T19:19:19.917Z,100296.09
2022-11-29T19:21:49.082Z,100304.63
2022-11-29T19:24:18.988Z,100301.38
2022-11-29T19:26:50.363Z,100302.41
2022-11-29T19:29:19.116Z,100305.28
2022-11-29T19:31:50.320Z,100300.00
2022-11-29T19:34:18.843Z,100305.47
2022-11-29T19:36:47.343Z,100311.56
2022-11-29T19:39:17.616Z,100294.31
2022-11-29T19:41:48.129Z,100302.25
2022-11-29T19:44:16.583Z,100296.97
2022-11-29T19:46:48.217Z,100300.63
2022-11-29T19:49:18.260Z,100289.66
2022-11-29T19:51:46.866Z,100309.22
2022-11-29T19:54:15.602Z,100307.97
2022-11-29T19:56:43.991Z,100315.31
2022-11-29T19:59:12.445Z,100307.59
2022-11-29T20:01:42.647Z,100307.59
2022-11-29T20:04:13.865Z,100312.09
2022-11-29T20:06:44.359Z,100320.44
2022-11-29T20:09:14.725Z,100314.34
2022-11-29T20:11:43.337Z,100322.28
2022-11-29T20:14:14.495Z,100313.75
2022-11-29T20:16:43.706Z,100316.63
2022-11-29T20:19:14.475Z,100321.91
2022-11-29T20:21:46.663Z,100324.75
2022-11-29T20:24:18.067Z,100333.13
2022-11-29T20:26:49.088Z,100326.00
2022-11-29T20:29:19.315Z,100321.72
2022-11-29T20:31:50.683Z,100317.47
2022-11-29T20:34:20.897Z,100330.91
2022-11-29T20:37:14.029Z,100331.53
2022-11-29T20:39:48.097Z,100333.59
2022-11-29T20:42:59.370Z,100332.41
2022-11-29T20:45:28.938Z,100332.41
2022-11-29T20:48:03.267Z,100341.56
2022-11-29T20:50:33.566Z,100337.09
2022-11-29T20:53:31.356Z,100342.00
2022-11-29T20:56:00.038Z,100329.81
2022-11-29T20:58:28.854Z,100343.22
2022-11-29T21:00:57.987Z,100339.78
2022-11-29T21:03:27.898Z,100348.97
2022-11-29T21:05:57.338Z,100353.44
2022-11-29T21:08:28.525Z,100359.53
2022-11-29T21:11:03.887Z,100349.16
2022-11-29T21:13:32.949Z,100352.22
2022-11-29T21:16:02.580Z,100352.03
2022-11-29T21:18:32.884Z,100354.06
2022-11-29T21:21:17.905Z,100369.09
2022-11-29T21:24:02.466Z,100362.41
2022-11-29T21:26:41.551Z,100358.94
2022-11-29T21:29:17.337Z,100352.28
2022-11-29T21:31:47.622Z,100364.25
2022-11-29T21:34:16.277Z,100360.22
2022-11-29T21:36:45.836Z,100366.06
2022-11-29T21:39:17.883Z,100359.97
2022-11-29T21:41:47.013Z,100349.03
2022-11-29T21:44:15.354Z,100361.81
2022-11-29T21:46:43.818Z,100360.78
2022-11-29T21:49:12.191Z,100376.66
2022-11-29T21:51:40.607Z,100363.28
2022-11-29T21:54:09.012Z,100361.22
2022-11-29T21:56:38.774Z,100367.31
2022-11-29T21:59:07.125Z,100371.38
2022-11-29T22:01:35.589Z,100361.81
2022-11-29T22:04:04.428Z,100367.09
2022-11-29T22:06:32.841Z,100368.72
2022-11-29T22:09:01.487Z,100369.75
2022-11-29T22:11:34.340Z,100375.22
2022-11-29T22:14:15.759Z,100371.78
2022-11-29T22:16:46.786Z,100366.50
2022-11-29T22:19:17.555Z,100364.88
2022-11-29T22:21:49.354Z,100359.59
2022-11-29T22:24:20.249Z,100364.66
2022-11-29T22:26:50.070Z,100361.22
2022-11-29T22:29:20.517Z,100369.38
2022-11-29T22:31:51.936Z,100369.94
2022-11-29T22:34:20.813Z,100363.84
2022-11-29T22:36:49.366Z,100366.50
2022-11-29T22:39:18.053Z,100358.78
2022-11-29T22:41:52.255Z,100359.38
2022-11-29T22:44:23.978Z,100365.69
2022-11-29T22:46:52.739Z,100367.31
2022-11-29T22:49:21.242Z,100361.44
2022-11-29T22:51:49.637Z,100363.28
2022-11-29T22:54:18.091Z,100371.78
2022-11-29T22:56:47.441Z,100368.75
2022-11-29T22:59:15.910Z,100362.84
2022-11-29T23:01:45.943Z,100387.06
2022-11-29T23:04:15.750Z,100376.47
2022-11-29T23:06:45.354Z,100375.88
2022-11-29T23:09:16.758Z,100367.94
2022-11-29T23:11:50.997Z,100365.31
2022-11-29T23:14:19.442Z,100363.47
2022-11-29T23:16:49.454Z,100379.31
2022-11-29T23:19:18.363Z,100374.84
2022-11-29T23:21:47.289Z,100369.56
2022-11-29T23:24:16.443Z,100369.78
2022-11-29T23:26:47.169Z,100375.69
2022-11-29T23:29:18.984Z,100373.22
2022-11-29T23:31:49.661Z,100370.59
2022-11-29T23:34:18.170Z,100379.31
2022-11-29T23:36:51.320Z,100374.22
2022-11-29T23:39:21.338Z,100370.59
2022-11-29T23:41:49.757Z,100371.41
2022-11-29T23:44:18.439Z,100370.41
2022-11-29T23:46:48.230Z,100360.00
2022-11-29T23:49:16.632Z,100360.00
2022-11-29T23:51:45.004Z,100364.28
2022-11-29T23:54:13.350Z,100368.56
2022-11-29T23:56:41.759Z,100357.38
2022-11-29T23:59:10.118Z,100360.81
